createdAt,value
2018-08-06T00:00:32.540Z,98799.00
2018-08-06T00:03:02.260Z,98786.00
2018-08-06T00:05:31.841Z,98795.00
2018-08-06T00:08:01.660Z,98784.00
2018-08-06T00:10:31.320Z,98791.00
2018-08-06T00:13:00.919Z,98787.00
2018-08-06T00:15:30.541Z,98792.00
2018-08-06T00:18:00.141Z,98794.00
2018-08-06T00:20:30.261Z,98780.00
2018-08-06T00:23:00.132Z,98780.00
2018-08-06T00:25:29.481Z,98786.00
2018-08-06T00:27:59.140Z,98797.00
2018-08-06T00:30:29.199Z,98788.00
2018-08-06T00:32:58.942Z,98797.00
2018-08-06T00:35:28.440Z,98787.00
2018-08-06T00:37:58.079Z,98800.00
2018-08-06T00:40:27.260Z,98794.00
2018-08-06T00:42:56.691Z,98793.00
2018-08-06T00:45:26.253Z,98783.00
2018-08-06T00:47:55.560Z,98781.00
2018-08-06T00:50:25.081Z,98776.00
2018-08-06T00:52:54.668Z,98776.00
2018-08-06T00:55:24.320Z,98771.00
2018-08-06T00:57:53.800Z,98774.00
2018-08-06T01:00:23.560Z,98770.00
2018-08-06T01:02:53.261Z,98764.00
2018-08-06T01:05:22.763Z,98762.00
2018-08-06T01:07:52.720Z,98767.00
2018-08-06T01:10:22.520Z,98762.00
2018-08-06T01:12:52.379Z,98764.00
2018-08-06T01:15:22.400Z,98756.00
2018-08-06T01:17:52.381Z,98755.00
2018-08-06T01:20:22.080Z,98764.00
2018-08-06T01:22:51.779Z,98757.00
2018-08-06T01:25:21.401Z,98755.00
2018-08-06T01:27:50.894Z,98752.00
2018-08-06T01:30:20.481Z,98761.00
2018-08-06T01:32:50.201Z,98756.00
2018-08-06T01:35:19.740Z,98763.00
2018-08-06T01:37:49.460Z,98755.00
2018-08-06T01:40:19.320Z,98765.00
2018-08-06T01:42:48.821Z,98758.00
2018-08-06T01:45:18.500Z,98763.00
2018-08-06T01:47:48.220Z,98757.00
2018-08-06T01:50:17.620Z,98756.00
2018-08-06T01:52:47.240Z,98766.00
2018-08-06T01:55:16.683Z,98767.00
2018-08-06T01:57:46.259Z,98767.00
2018-08-06T02:00:16.909Z,98760.00
2018-08-06T02:02:46.480Z,98769.00
2018-08-06T02:05:16.100Z,98764.00
2018-08-06T02:07:45.680Z,98754.00
2018-08-06T02:10:16.320Z,98753.00
2018-08-06T02:12:46.620Z,98756.00
2018-08-06T02:15:16.200Z,98757.00
2018-08-06T02:17:46.140Z,98765.00
2018-08-06T02:20:17.300Z,98763.00
2018-08-06T02:22:48.115Z,98767.00
2018-08-06T02:25:17.814Z,98766.00
2018-08-06T02:27:47.380Z,98763.00
2018-08-06T02:30:17.161Z,98768.00
2018-08-06T02:32:46.560Z,98760.00
2018-08-06T02:35:16.400Z,98762.00
2018-08-06T02:37:46.167Z,98763.00
2018-08-06T02:40:18.760Z,98764.00
2018-08-06T02:42:48.919Z,98771.00
2018-08-06T02:45:19.040Z,98775.00
2018-08-06T02:47:48.794Z,98770.00
2018-08-06T02:50:18.380Z,98764.00
2018-08-06T02:52:48.300Z,98766.00
2018-08-06T02:55:17.834Z,98765.00
2018-08-06T02:57:47.082Z,98766.00
2018-08-06T03:00:18.326Z,98767.00
2018-08-06T03:02:48.140Z,98765.00
2018-08-06T03:05:19.180Z,98761.00
2018-08-06T03:07:48.864Z,98756.00
2018-08-06T03:10:18.501Z,98761.00
2018-08-06T03:12:48.220Z,98757.00
2018-08-06T03:15:18.069Z,98761.00
2018-08-06T03:17:47.955Z,98766.00
2018-08-06T03:20:17.662Z,98762.00
2018-08-06T03:22:47.180Z,98764.00
2018-08-06T03:25:17.474Z,98764.00
2018-08-06T03:27:47.080Z,98770.00
2018-08-06T03:30:17.782Z,98760.00
2018-08-06T03:32:48.280Z,98771.00
2018-08-06T03:35:18.181Z,98764.00
2018-08-06T03:37:47.781Z,98767.00
2018-08-06T03:40:17.409Z,98766.00
2018-08-06T03:42:47.061Z,98767.00
2018-08-06T03:45:16.880Z,98771.00
2018-08-06T03:47:46.360Z,98765.00
2018-08-06T03:50:16.000Z,98764.00
2018-08-06T03:52:45.745Z,98765.00
2018-08-06T03:55:15.740Z,98767.00
2018-08-06T03:57:45.280Z,98769.00
2018-08-06T04:00:15.601Z,98766.00
2018-08-06T04:02:45.760Z,98768.00
2018-08-06T04:05:16.045Z,98754.00
2018-08-06T04:07:45.681Z,98760.00
2018-08-06T04:10:17.100Z,98755.00
2018-08-06T04:12:46.820Z,98748.00
2018-08-06T04:15:16.760Z,98749.00
2018-08-06T04:17:46.660Z,98757.00
2018-08-06T04:20:16.360Z,98758.00
2018-08-06T04:22:46.440Z,98752.00
2018-08-06T04:25:16.141Z,98763.00
2018-08-06T04:27:45.721Z,98753.00
2018-08-06T04:30:16.141Z,98759.00
2018-08-06T04:32:46.453Z,98764.00
2018-08-06T04:35:16.240Z,98768.00
2018-08-06T04:37:46.600Z,98769.00
2018-08-06T04:40:16.361Z,98764.00
2018-08-06T04:42:45.943Z,98766.00
2018-08-06T04:45:15.608Z,98769.00
2018-08-06T04:47:45.282Z,98770.00
2018-08-06T04:50:15.303Z,98768.00
2018-08-06T04:52:45.899Z,98777.00
2018-08-06T04:55:15.960Z,98778.00
2018-08-06T04:57:45.403Z,98781.00
2018-08-06T05:00:15.783Z,98778.00
2018-08-06T05:02:45.494Z,98774.00
2018-08-06T05:05:15.060Z,98787.00
2018-08-06T05:07:44.880Z,98787.00
2018-08-06T05:10:14.660Z,98787.00
2018-08-06T05:12:44.220Z,98786.00
2018-08-06T05:15:13.901Z,98786.00
2018-08-06T05:17:43.681Z,98798.00
2018-08-06T05:20:13.422Z,98788.00
2018-08-06T05:22:43.070Z,98798.00
2018-08-06T05:25:12.902Z,98793.00
2018-08-06T05:27:42.563Z,98798.00
2018-08-06T05:30:13.738Z,98797.00
2018-08-06T05:32:43.642Z,98803.00
2018-08-06T05:35:13.444Z,98808.00
2018-08-06T05:37:43.142Z,98809.00
2018-08-06T05:40:12.842Z,98809.00
2018-08-06T05:42:42.462Z,98811.00
2018-08-06T05:45:12.805Z,98813.00
2018-08-06T05:47:42.343Z,98810.00
2018-08-06T05:50:13.442Z,98810.00
2018-08-06T05:52:43.522Z,98819.00
2018-08-06T05:55:13.182Z,98811.00
2018-08-06T05:57:42.856Z,98814.00
2018-08-06T06:00:18.058Z,98819.00
2018-08-06T06:02:47.945Z,98818.00
2018-08-06T06:05:17.642Z,98813.00
2018-08-06T06:07:47.182Z,98817.00
2018-08-06T06:10:16.542Z,98813.00
2018-08-06T06:12:46.242Z,98816.00
2018-08-06T06:15:16.702Z,98821.00
2018-08-06T06:17:46.376Z,98824.00
2018-08-06T06:20:16.283Z,98826.00
2018-08-06T06:22:46.043Z,98826.00
2018-08-06T06:25:15.842Z,98828.00
2018-08-06T06:27:45.425Z,98831.00
2018-08-06T06:30:16.824Z,98824.00
2018-08-06T06:32:46.413Z,98829.00
2018-08-06T06:35:16.003Z,98829.00
2018-08-06T06:37:45.742Z,98839.00
2018-08-06T06:40:15.685Z,98834.00
2018-08-06T06:42:45.422Z,98829.00
2018-08-06T06:45:15.043Z,98827.00
2018-08-06T06:47:44.922Z,98822.00
2018-08-06T06:50:15.014Z,98818.00
2018-08-06T06:52:44.763Z,98820.00
2018-08-06T06:55:14.698Z,98823.00
2018-08-06T06:57:44.606Z,98814.00
2018-08-06T07:00:14.385Z,98818.00
2018-08-06T07:02:44.002Z,98813.00
2018-08-06T07:05:13.663Z,98822.00
2018-08-06T07:07:43.224Z,98820.00
2018-08-06T07:10:13.262Z,98823.00
2018-08-06T07:12:42.989Z,98816.00
2018-08-06T07:15:15.702Z,98822.00
2018-08-06T07:17:47.402Z,98826.00
2018-08-06T07:20:20.484Z,98823.00
2018-08-06T07:22:50.228Z,98822.00
2018-08-06T07:25:20.068Z,98819.00
2018-08-06T07:27:49.602Z,98822.00
2018-08-06T07:30:19.244Z,98827.00
2018-08-06T07:32:49.182Z,98826.00
2018-08-06T07:35:18.963Z,98826.00
2018-08-06T07:37:48.522Z,98830.00
2018-08-06T07:40:18.299Z,98829.00
2018-08-06T07:42:54.622Z,98823.00
2018-08-06T07:45:24.282Z,98826.00
2018-08-06T07:47:53.822Z,98824.00
2018-08-06T07:50:23.382Z,98825.00
2018-08-06T07:52:53.022Z,98826.00
2018-08-06T07:55:22.942Z,98826.00
2018-08-06T07:57:52.562Z,98824.00
2018-08-06T08:00:22.507Z,98832.00
2018-08-06T08:02:52.423Z,98821.00
2018-08-06T08:05:22.022Z,98822.00
2018-08-06T08:07:51.662Z,98820.00
2018-08-06T08:10:22.561Z,98819.00
2018-08-06T08:12:52.242Z,98819.00
2018-08-06T08:15:23.862Z,98828.00
2018-08-06T08:17:54.188Z,98816.00
2018-08-06T08:20:24.273Z,98817.00
2018-08-06T08:22:54.247Z,98817.00
2018-08-06T08:25:24.022Z,98819.00
2018-08-06T08:27:53.722Z,98822.00
2018-08-06T08:30:23.362Z,98823.00
2018-08-06T08:32:53.022Z,98820.00
2018-08-06T08:35:30.662Z,98822.00
2018-08-06T08:38:00.661Z,98819.00
2018-08-06T08:40:30.523Z,98825.00
2018-08-06T08:43:00.461Z,98827.00
2018-08-06T08:45:30.325Z,98815.00
2018-08-06T08:47:59.822Z,98825.00
2018-08-06T08:50:29.562Z,98819.00
2018-08-06T08:52:59.103Z,98817.00
2018-08-06T08:55:29.193Z,98812.00
2018-08-06T08:57:59.004Z,98816.00
2018-08-06T09:00:28.705Z,98815.00
2018-08-06T09:02:59.272Z,98808.00
2018-08-06T09:05:29.483Z,98815.00
2018-08-06T09:08:00.302Z,98811.00
2018-08-06T09:10:30.023Z,98812.00
2018-08-06T09:13:00.164Z,98807.00
2018-08-06T09:15:30.982Z,98806.00
2018-08-06T09:18:01.594Z,98796.00
2018-08-06T09:20:31.663Z,98802.00
2018-08-06T09:23:01.224Z,98808.00
2018-08-06T09:25:31.063Z,98793.00
2018-08-06T09:28:00.804Z,98804.00
2018-08-06T09:30:30.822Z,98791.00
2018-08-06T09:33:00.322Z,98798.00
2018-08-06T09:35:29.877Z,98795.00
2018-08-06T09:37:59.662Z,98792.00
2018-08-06T09:40:30.020Z,98783.00
2018-08-06T09:42:59.959Z,98786.00
2018-08-06T09:45:29.563Z,98780.00
2018-08-06T09:47:59.144Z,98775.00
2018-08-06T09:50:28.742Z,98782.00
2018-08-06T09:52:58.393Z,98778.00
2018-08-06T09:55:29.022Z,98777.00
2018-08-06T09:57:58.687Z,98774.00
2018-08-06T10:00:33.942Z,98774.00
2018-08-06T10:03:03.662Z,98774.00
2018-08-06T10:05:33.445Z,98767.00
2018-08-06T10:08:02.978Z,98768.00
2018-08-06T10:10:32.542Z,98770.00
2018-08-06T10:13:02.123Z,98766.00
2018-08-06T10:15:32.742Z,98771.00
2018-08-06T10:18:02.682Z,98766.00
2018-08-06T10:20:32.382Z,98772.00
2018-08-06T10:25:46.222Z,98766.00
2018-08-06T10:28:15.822Z,98768.00
2018-08-06T10:30:45.404Z,98758.00
2018-08-06T10:33:15.003Z,98754.00
2018-08-06T10:35:44.583Z,98761.00
2018-08-06T10:38:14.323Z,98756.00
2018-08-06T10:40:43.883Z,98756.00
2018-08-06T10:43:13.482Z,98747.00
2018-08-06T10:45:43.082Z,98743.00
2018-08-06T10:48:12.763Z,98739.00
2018-08-06T10:50:42.283Z,98739.00
2018-08-06T10:53:11.882Z,98736.00
2018-08-06T10:55:41.422Z,98740.00
2018-08-06T10:58:11.062Z,98737.00
2018-08-06T11:00:40.752Z,98736.00
2018-08-06T11:03:10.822Z,98734.00
2018-08-06T11:05:40.494Z,98732.00
2018-08-06T11:08:10.063Z,98741.00
2018-08-06T11:10:39.684Z,98729.00
2018-08-06T11:13:09.403Z,98723.00
2018-08-06T11:15:38.623Z,98732.00
2018-08-06T11:18:08.043Z,98722.00
2018-08-06T11:20:38.043Z,98719.00
2018-08-06T11:23:07.723Z,98721.00
2018-08-06T11:25:37.282Z,98720.00
2018-08-06T11:28:07.162Z,98712.00
2018-08-06T11:30:36.722Z,98711.00
2018-08-06T11:33:06.563Z,98708.00
2018-08-06T11:35:36.123Z,98705.00
2018-08-06T11:38:05.643Z,98702.00
2018-08-06T11:40:35.368Z,98708.00
2018-08-06T11:43:05.003Z,98705.00
2018-08-06T11:45:34.283Z,98702.00
2018-08-06T11:48:03.882Z,98697.00
2018-08-06T11:50:33.682Z,98696.00
2018-08-06T11:53:03.323Z,98690.00
2018-08-06T11:55:33.083Z,98688.00
2018-08-06T11:58:02.763Z,98687.00
2018-08-06T12:00:32.479Z,98686.00
2018-08-06T12:03:02.402Z,98674.00
2018-08-06T12:05:32.024Z,98682.00
2018-08-06T12:08:01.549Z,98667.00
2018-08-06T12:10:31.163Z,98663.00
2018-08-06T12:13:00.759Z,98661.00
2018-08-06T12:15:30.302Z,98658.00
2018-08-06T12:17:59.882Z,98662.00
2018-08-06T12:20:29.733Z,98660.00
2018-08-06T12:22:59.382Z,98653.00
2018-08-06T12:25:29.203Z,98650.00
2018-08-06T12:27:58.862Z,98645.00
2018-08-06T12:30:28.282Z,98640.00
2018-08-06T12:32:58.142Z,98642.00
2018-08-06T12:35:28.882Z,98638.00
2018-08-06T12:37:58.522Z,98633.00
2018-08-06T12:40:29.268Z,98630.00
2018-08-06T12:42:59.102Z,98631.00
2018-08-06T12:45:28.822Z,98623.00
2018-08-06T12:47:58.368Z,98622.00
2018-08-06T12:50:28.203Z,98615.00
2018-08-06T12:52:57.982Z,98608.00
2018-08-06T12:55:27.643Z,98612.00
2018-08-06T12:57:57.463Z,98610.00
2018-08-06T13:00:27.544Z,98609.00
2018-08-06T13:02:57.302Z,98596.00
2018-08-06T13:05:27.002Z,98602.00
2018-08-06T13:07:57.593Z,98594.00
2018-08-06T13:10:27.173Z,98596.00
2018-08-06T13:12:56.693Z,98592.00
2018-08-06T13:15:26.458Z,98587.00
2018-08-06T13:17:56.146Z,98584.00
2018-08-06T13:20:25.673Z,98572.00
2018-08-06T13:22:55.498Z,98578.00
2018-08-06T13:25:25.202Z,98572.00
2018-08-06T13:27:54.874Z,98583.00
2018-08-06T13:30:24.453Z,98575.00
2018-08-06T13:32:54.633Z,98573.00
2018-08-06T13:35:24.233Z,98576.00
2018-08-06T13:37:54.195Z,98567.00
2018-08-06T13:40:24.093Z,98570.00
2018-08-06T13:42:54.236Z,98561.00
2018-08-06T13:45:24.014Z,98556.00
2018-08-06T13:47:53.853Z,98550.00
2018-08-06T13:50:23.528Z,98550.00
2018-08-06T13:52:54.503Z,98559.00
2018-08-06T13:55:24.390Z,98555.00
2018-08-06T13:57:54.116Z,98558.00
2018-08-06T14:00:24.217Z,98556.00
2018-08-06T14:02:53.936Z,98556.00
2018-08-06T14:05:23.563Z,98550.00
2018-08-06T14:07:53.099Z,98547.00
2018-08-06T14:10:22.960Z,98541.00
2018-08-06T14:12:52.660Z,98542.00
2018-08-06T14:15:22.559Z,98544.00
2018-08-06T14:17:52.600Z,98529.00
2018-08-06T14:20:22.582Z,98529.00
2018-08-06T14:22:52.440Z,98529.00
2018-08-06T14:25:22.320Z,98522.00
2018-08-06T14:27:52.540Z,98522.00
2018-08-06T14:30:22.180Z,98519.00
2018-08-06T14:32:51.859Z,98517.00
2018-08-06T14:35:22.661Z,98507.00
2018-08-06T14:37:52.299Z,98504.00
2018-08-06T14:40:21.923Z,98496.00
2018-08-06T14:42:54.477Z,98494.00
2018-08-06T14:45:24.148Z,98494.00
2018-08-06T14:47:53.371Z,98496.00
2018-08-06T14:50:22.940Z,98481.00
2018-08-06T14:52:52.979Z,98479.00
2018-08-06T14:55:22.200Z,98470.00
2018-08-06T14:57:51.821Z,98470.00
2018-08-06T15:00:22.763Z,98473.00
2018-08-06T15:02:53.401Z,98470.00
2018-08-06T15:05:23.107Z,98470.00
2018-08-06T15:07:52.751Z,98471.00
2018-08-06T15:10:22.392Z,98464.00
2018-08-06T15:12:52.352Z,98468.00
2018-08-06T15:15:21.938Z,98462.00
2018-08-06T15:17:51.571Z,98458.00
2018-08-06T15:20:21.231Z,98455.00
2018-08-06T15:22:50.782Z,98450.00
2018-08-06T15:25:22.544Z,98447.00
2018-08-06T15:27:52.573Z,98449.00
2018-08-06T15:30:22.271Z,98441.00
2018-08-06T15:32:52.184Z,98435.00
2018-08-06T15:35:21.772Z,98435.00
2018-08-06T15:37:51.592Z,98433.00
2018-08-06T15:40:21.603Z,98433.00
2018-08-06T15:42:51.317Z,98432.00
2018-08-06T15:45:21.118Z,98430.00
2018-08-06T15:47:50.720Z,98426.00
2018-08-06T15:50:21.938Z,98426.00
2018-08-06T15:52:51.621Z,98416.00
2018-08-06T15:55:21.136Z,98415.00
2018-08-06T15:57:50.759Z,98412.00
2018-08-06T16:00:20.358Z,98410.00
2018-08-06T16:02:49.638Z,98415.00
2018-08-06T16:05:19.319Z,98417.00
2018-08-06T16:07:48.991Z,98409.00
2018-08-06T16:10:18.706Z,98414.00
2018-08-06T16:12:48.298Z,98415.00
2018-08-06T16:15:18.241Z,98410.00
2018-08-06T16:17:48.483Z,98402.00
2018-08-06T16:20:18.698Z,98403.00
2018-08-06T16:22:48.299Z,98403.00
2018-08-06T16:25:18.451Z,98404.00
2018-08-06T16:27:48.051Z,98402.00
2018-08-06T16:30:22.488Z,98406.00
2018-08-06T16:32:52.517Z,98403.00
2018-08-06T16:35:24.063Z,98397.00
2018-08-06T16:37:55.947Z,98393.00
2018-08-06T16:40:25.947Z,98392.00
2018-08-06T16:42:55.667Z,98386.00
2018-08-06T16:45:25.267Z,98396.00
2018-08-06T16:47:54.949Z,98393.00
2018-08-06T16:50:24.684Z,98394.00
2018-08-06T16:52:54.328Z,98392.00
2018-08-06T16:55:23.908Z,98387.00
2018-08-06T16:57:53.827Z,98395.00
2018-08-06T17:00:23.807Z,98391.00
2018-08-06T17:02:54.115Z,98390.00
2018-08-06T17:05:24.847Z,98386.00
2018-08-06T17:07:55.168Z,98382.00
2018-08-06T17:10:24.909Z,98384.00
2018-08-06T17:12:55.118Z,98386.00
2018-08-06T17:15:24.967Z,98384.00
2018-08-06T17:17:56.047Z,98383.00
2018-08-06T17:20:26.287Z,98385.00
2018-08-06T17:22:56.067Z,98378.00
2018-08-06T17:25:26.016Z,98375.00
2018-08-06T17:27:55.687Z,98369.00
2018-08-06T17:30:25.251Z,98367.00
2018-08-06T17:32:55.093Z,98366.00
2018-08-06T17:35:24.747Z,98380.00
2018-08-06T17:37:54.408Z,98376.00
2018-08-06T17:40:24.049Z,98371.00
2018-08-06T17:42:53.863Z,98376.00
2018-08-06T17:45:24.327Z,98372.00
2018-08-06T17:47:54.034Z,98370.00
2018-08-06T17:50:24.148Z,98379.00
2018-08-06T17:52:54.078Z,98366.00
2018-08-06T17:55:24.043Z,98376.00
2018-08-06T17:57:53.970Z,98381.00
2018-08-06T18:00:23.733Z,98385.00
2018-08-06T18:02:53.407Z,98384.00
2018-08-06T18:05:23.110Z,98386.00
2018-08-06T18:07:52.602Z,98386.00
2018-08-06T18:10:22.473Z,98389.00
2018-08-06T18:12:52.317Z,98391.00
2018-08-06T18:15:21.907Z,98391.00
2018-08-06T18:17:51.676Z,98396.00
2018-08-06T18:20:21.176Z,98398.00
2018-08-06T18:22:51.008Z,98395.00
2018-08-06T18:25:20.537Z,98396.00
2018-08-06T18:27:50.520Z,98399.00
2018-08-06T18:30:21.337Z,98394.00
2018-08-06T18:32:51.376Z,98407.00
2018-08-06T18:35:21.134Z,98402.00
2018-08-06T18:37:50.937Z,98402.00
2018-08-06T18:40:21.616Z,98408.00
2018-08-06T18:42:51.417Z,98407.00
2018-08-06T18:45:21.836Z,98420.00
2018-08-06T18:47:52.118Z,98416.00
2018-08-06T18:50:22.087Z,98424.00
2018-08-06T18:52:51.981Z,98432.00
2018-08-06T18:55:21.716Z,98434.00
2018-08-06T18:57:51.460Z,98433.00
2018-08-06T19:00:22.760Z,98442.00
2018-08-06T19:02:52.616Z,98442.00
2018-08-06T19:05:22.253Z,98447.00
2018-08-06T19:07:52.337Z,98446.00
2018-08-06T19:10:22.276Z,98450.00
2018-08-06T19:12:57.310Z,98447.00
2018-08-06T19:15:27.936Z,98445.00
2018-08-06T19:18:02.936Z,98443.00
2018-08-06T19:20:32.616Z,98460.00
2018-08-06T19:23:02.157Z,98456.00
2018-08-06T19:25:32.956Z,98461.00
2018-08-06T19:28:03.237Z,98459.00
2018-08-06T19:30:38.213Z,98467.00
2018-08-06T19:33:07.876Z,98460.00
2018-08-06T19:35:37.567Z,98465.00
2018-08-06T19:38:06.896Z,98463.00
2018-08-06T19:40:36.496Z,98473.00
2018-08-06T19:43:11.427Z,98466.00
2018-08-06T19:45:41.361Z,98469.00
2018-08-06T19:48:10.883Z,98469.00
2018-08-06T19:50:42.316Z,98469.00
2018-08-06T19:53:12.036Z,98471.00
2018-08-06T19:55:47.076Z,98472.00
2018-08-06T19:58:16.792Z,98473.00
2018-08-06T20:00:46.419Z,98483.00
2018-08-06T20:03:16.096Z,98472.00
2018-08-06T20:05:45.758Z,98477.00
2018-08-06T20:08:15.393Z,98471.00
2018-08-06T20:10:45.618Z,98475.00
2018-08-06T20:13:15.317Z,98476.00
2018-08-06T20:15:45.207Z,98474.00
2018-08-06T20:18:14.936Z,98470.00
2018-08-06T20:20:44.636Z,98473.00
2018-08-06T20:23:13.996Z,98477.00
2018-08-06T20:25:43.896Z,98470.00
2018-08-06T20:28:13.516Z,98479.00
2018-08-06T20:30:43.156Z,98469.00
2018-08-06T20:33:12.879Z,98469.00
2018-08-06T20:35:42.556Z,98473.00
2018-08-06T20:38:12.436Z,98473.00
2018-08-06T20:40:42.116Z,98473.00
2018-08-06T20:43:11.816Z,98466.00
2018-08-06T20:45:41.436Z,98471.00
2018-08-06T20:48:11.396Z,98474.00
2018-08-06T20:50:41.079Z,98472.00
2018-08-06T20:53:10.702Z,98474.00
2018-08-06T20:55:40.276Z,98478.00
2018-08-06T20:58:09.896Z,98484.00
2018-08-06T21:00:40.056Z,98477.00
2018-08-06T21:03:09.976Z,98473.00
2018-08-06T21:05:40.078Z,98483.00
2018-08-06T21:08:10.198Z,98483.00
2018-08-06T21:10:40.316Z,98485.00
2018-08-06T21:13:09.956Z,98491.00
2018-08-06T21:15:39.912Z,98490.00
2018-08-06T21:18:09.460Z,98486.00
2018-08-06T21:20:38.961Z,98493.00
2018-08-06T21:23:08.716Z,98485.00
2018-08-06T21:25:38.336Z,98486.00
2018-08-06T21:28:08.016Z,98479.00
2018-08-06T21:30:37.716Z,98485.00
2018-08-06T21:33:08.111Z,98481.00
2018-08-06T21:35:37.772Z,98483.00
2018-08-06T21:38:06.976Z,98486.00
2018-08-06T21:40:36.640Z,98479.00
2018-08-06T21:43:06.936Z,98478.00
2018-08-06T21:45:37.085Z,98486.00
2018-08-06T21:48:06.576Z,98479.00
2018-08-06T21:50:36.824Z,98484.00
2018-08-06T21:53:06.436Z,98482.00
2018-08-06T21:55:36.137Z,98483.00
2018-08-06T21:58:06.119Z,98492.00
2018-08-06T22:00:46.974Z,98484.00
2018-08-06T22:03:18.198Z,98489.00
2018-08-06T22:05:47.916Z,98479.00
2018-08-06T22:08:17.737Z,98485.00
2018-08-06T22:10:47.556Z,98479.00
2018-08-06T22:13:17.120Z,98491.00
2018-08-06T22:16:01.293Z,98483.00
2018-08-06T22:18:30.937Z,98477.00
2018-08-06T22:21:00.477Z,98487.00
2018-08-06T22:23:30.026Z,98483.00
2018-08-06T22:25:59.896Z,98479.00
2018-08-06T22:28:29.616Z,98489.00
2018-08-06T22:30:59.376Z,98480.00
2018-08-06T22:33:28.976Z,98480.00
2018-08-06T22:35:58.676Z,98483.00
2018-08-06T22:38:28.117Z,98478.00
2018-08-06T22:40:57.716Z,98479.00
2018-08-06T22:43:27.252Z,98478.00
2018-08-06T22:45:57.027Z,98475.00
2018-08-06T22:48:26.456Z,98484.00
2018-08-06T22:50:56.156Z,98486.00
2018-08-06T22:53:25.887Z,98477.00
2018-08-06T22:56:09.076Z,98477.00
2018-08-06T22:58:39.316Z,98477.00
2018-08-06T23:01:11.232Z,98474.00
2018-08-06T23:03:40.456Z,98484.00
2018-08-06T23:06:10.999Z,98472.00
2018-08-06T23:08:40.709Z,98474.00
2018-08-06T23:11:10.536Z,98476.00
2018-08-06T23:13:40.147Z,98477.00
2018-08-06T23:16:24.416Z,98471.00
2018-08-06T23:18:54.376Z,98463.00
2018-08-06T23:21:24.018Z,98472.00
2018-08-06T23:23:53.637Z,98466.00
2018-08-06T23:26:23.176Z,98470.00
2018-08-06T23:28:52.756Z,98469.00
2018-08-06T23:31:22.396Z,98460.00
2018-08-06T23:33:51.987Z,98453.00
2018-08-06T23:36:21.596Z,98451.00
2018-08-06T23:38:51.396Z,98448.00
2018-08-06T23:41:21.357Z,98448.00
2018-08-06T23:43:51.376Z,98438.00
2018-08-06T23:46:21.531Z,98436.00
2018-08-06T23:48:51.036Z,98438.00
2018-08-06T23:51:20.756Z,98436.00
2018-08-06T23:53:50.418Z,98434.00
2018-08-06T23:56:20.097Z,98436.00
2018-08-06T23:58:49.377Z,98430.00
